Aérodrome :
LOGIN :

S'inscrire | Disclaimer

   EN    FR    IT 

 










Légende :    VFR   VFR Marginal   IFR   IFR Intensif   IFR Très Intensif
Visi : 
Plafond : 
>= 8 km
>= 3000ft
5 à 8 km
1000 à 3000 ft
1500m à 5 km
500 à 1000 ft
800 à 1500m
200 à 500 ft
< 800m
< 200 ft
Symboles :   Orages  Brouillard  Fortes neiges  Fortes précipitations  Vent > 20 kt
SIGMETs :   Divers  Orages  Givrage  Turbulence  Onde Orograph.  Cendres Volcan.






- Altitude de l'aérodrome : 741 ft
- Code IATA : PED


LKPD - Pardubice AB

DERNIER METAR :
  • 212100Z 10002KT 6000 NSC 11/10 Q1021 RMK WHT

METARs EXPIRÉS :
  • 212000Z VRB02KT 8000 NSC 12/11 Q1021 NOSIG

TAF TAF LKPD
Valide du 21 à 18h jusqu'au 22 à 18h UTC


211700Z 2118/2218 VRB02KT CAVOK
BECMG 2119/2121 3000 BR OVC005
BECMG 2122/2200 0400 FG VV001
BECMG 2208/2210 5000 BR BKN010
BECMG 2211/2213 CAVOK



MET'MAP, la Météo Aéronautique d'un coup d'oeil ! - Copyright ORBIFLY Décembre 2007 - Disclaimer

ORBIFLY MET'MAP TEAM :

Programmation & Développement : Alexandra Zaïnal
Conception & Développement : Baudouin d'Aumeries
Co-Programmation & Développement : Marc-Olivier Méhu
Soutien technique & logistique : Manuel Goepfert

Contact : metmap@orbifly.com




SOURCES & CREDITS :

   NOAA